RJEO(METAR)
12/04 14:00
RJEO 040500Z 29026G39KT 9999 FEW020 BKN030 M04/M09 Q1019 RMK A3010=
戻る
トップページへ戻る
IMOC Co,.Ltd.